sensor_id;sensor_type;location;lat;lon;timestamp;pressure;altitude;pressure_sealevel;temperature;humidity
13241;BME280;6687;47.790;7.322;2024-03-07T05:13:42;99255.63;;;7.59;100.00
13241;BME280;6687;47.790;7.322;2024-03-07T05:16:09;99252.06;;;7.51;100.00
13241;BME280;6687;47.790;7.322;2024-03-07T05:18:35;99259.50;;;7.83;100.00
13241;BME280;6687;47.790;7.322;2024-03-07T05:21:02;99251.53;;;7.69;100.00
13241;BME280;6687;47.790;7.322;2024-03-07T05:23:49;99254.25;;;7.76;100.00
13241;BME280;6687;47.790;7.322;2024-03-07T05:26:16;99254.28;;;7.80;100.00
13241;BME280;6687;47.790;7.322;2024-03-07T05:28:44;99250.81;;;7.77;100.00
13241;BME280;6687;47.790;7.322;2024-03-07T05:31:10;99250.47;;;7.59;100.00
13241;BME280;6687;47.790;7.322;2024-03-07T05:33:38;99247.59;;;7.91;100.00
13241;BME280;6687;47.790;7.322;2024-03-07T05:36:06;99250.81;;;7.77;100.00
13241;BME280;6687;47.790;7.322;2024-03-07T05:38:40;99250.97;;;7.87;100.00
13241;BME280;6687;47.790;7.322;2024-03-07T05:41:08;99248.69;;;7.55;100.00
13241;BME280;6687;47.790;7.322;2024-03-07T05:43:36;99244.25;;;7.46;100.00
13241;BME280;6687;47.790;7.322;2024-03-07T05:46:04;99242.34;;;7.37;100.00
13241;BME280;6687;47.790;7.322;2024-03-07T05:48:32;99242.94;;;7.68;100.00
13241;BME280;6687;47.790;7.322;2024-03-07T05:50:59;99248.78;;;7.61;100.00
13241;BME280;6687;47.790;7.322;2024-03-07T05:53:26;99243.06;;;7.77;100.00
13241;BME280;6687;47.790;7.322;2024-03-07T05:55:53;99248.69;;;7.55;100.00
13241;BME280;6687;47.790;7.322;2024-03-07T05:58:19;99246.19;;;7.60;100.00
13241;BME280;6687;47.790;7.322;2024-03-07T06:18:31;99246.63;;;8.36;100.00
13241;BME280;6687;47.790;7.322;2024-03-07T06:20:58;99243.47;;;8.54;100.00
13241;BME280;6687;47.790;7.322;2024-03-07T06:23:25;99246.88;;;8.51;100.00
13241;BME280;6687;47.790;7.322;2024-03-07T06:25:54;99244.06;;;8.39;100.00
13241;BME280;6687;47.790;7.322;2024-03-07T06:28:21;99243.59;;;8.62;100.00
13241;BME280;6687;47.790;7.322;2024-03-07T06:30:48;99245.41;;;8.69;100.00
13241;BME280;6687;47.790;7.322;2024-03-07T06:33:15;99243.63;;;8.65;100.00
13241;BME280;6687;47.790;7.322;2024-03-07T06:35:44;99237.88;;;8.84;100.00
13241;BME280;6687;47.790;7.322;2024-03-07T06:38:10;99240.38;;;8.81;100.00
13241;BME280;6687;47.790;7.322;2024-03-07T06:40:38;99247.38;;;8.88;100.00
13241;BME280;6687;47.790;7.322;2024-03-07T06:43:06;99244.91;;;8.96;98.78
13241;BME280;6687;47.790;7.322;2024-03-07T06:45:35;99248.34;;;8.96;98.79
13241;BME280;6687;47.790;7.322;2024-03-07T06:48:02;99247.59;;;9.04;98.05
13241;BME280;6687;47.790;7.322;2024-03-07T06:50:30;99248.50;;;9.07;97.60
13241;BME280;6687;47.790;7.322;2024-03-07T06:52:58;99244.19;;;9.08;97.70
13241;BME280;6687;47.790;7.322;2024-03-07T06:55:24;99244.22;;;9.09;97.31
13241;BME280;6687;47.790;7.322;2024-03-07T06:57:52;99245.97;;;9.12;97.28
13241;BME280;6687;47.790;7.322;2024-03-07T07:00:20;99243.41;;;9.15;96.92
13241;BME280;6687;47.790;7.322;2024-03-07T07:02:47;99249.44;;;9.14;97.07
13241;BME280;6687;47.790;7.322;2024-03-07T07:05:14;99247.75;;;9.16;97.23
13241;BME280;6687;47.790;7.322;2024-03-07T07:07:43;99239.22;;;9.23;96.64
13241;BME280;6687;47.790;7.322;2024-03-07T07:10:12;99240.56;;;8.92;97.89
13241;BME280;6687;47.790;7.322;2024-03-07T07:12:44;99242.50;;;9.10;97.69
13241;BME280;6687;47.790;7.322;2024-03-07T07:15:11;99233.06;;;9.13;97.43
13241;BME280;6687;47.790;7.322;2024-03-07T07:17:38;99236.41;;;9.05;97.69
13241;BME280;6687;47.790;7.322;2024-03-07T07:20:06;99232.44;;;8.64;98.86
13241;BME280;6687;47.790;7.322;2024-03-07T07:22:36;99232.66;;;8.81;99.23
13241;BME280;6687;47.790;7.322;2024-03-07T07:25:04;99233.22;;;8.59;99.13
13241;BME280;6687;47.790;7.322;2024-03-07T07:27:33;99231.03;;;8.30;98.87
13241;BME280;6687;47.790;7.322;2024-03-07T07:29:59;99233.72;;;8.36;99.71
13241;BME280;6687;47.790;7.322;2024-03-07T07:32:26;99234.56;;;7.83;100.00
13241;BME280;6687;47.790;7.322;2024-03-07T07:34:53;99238.63;;;7.69;100.00
13241;BME280;6687;47.790;7.322;2024-03-07T07:37:20;99234.53;;;8.35;100.00
13241;BME280;6687;47.790;7.322;2024-03-07T07:39:48;99231.94;;;8.32;100.00
13241;BME280;6687;47.790;7.322;2024-03-07T07:42:15;99241.91;;;7.60;100.00
13241;BME280;6687;47.790;7.322;2024-03-07T07:44:43;99233.66;;;7.80;100.00
13241;BME280;6687;47.790;7.322;2024-03-07T07:47:10;99232.41;;;7.57;100.00
13241;BME280;6687;47.790;7.322;2024-03-07T07:49:37;99234.25;;;7.65;100.00
13241;BME280;6687;47.790;7.322;2024-03-07T07:52:05;99239.66;;;7.31;100.00
13241;BME280;6687;47.790;7.322;2024-03-07T07:54:34;99241.56;;;7.42;100.00
13241;BME280;6687;47.790;7.322;2024-03-07T07:57:00;99236.63;;;7.54;100.00
13241;BME280;6687;47.790;7.322;2024-03-07T07:59:27;99246.44;;;7.26;100.00
13241;BME280;6687;47.790;7.322;2024-03-07T08:01:55;99244.34;;;7.54;100.00
13241;BME280;6687;47.790;7.322;2024-03-07T08:04:22;99240.38;;;7.24;100.00
13241;BME280;6687;47.790;7.322;2024-03-07T08:06:48;99236.25;;;7.32;100.00
13241;BME280;6687;47.790;7.322;2024-03-07T08:09:18;99228.66;;;7.89;100.00
13241;BME280;6687;47.790;7.322;2024-03-07T08:11:44;99232.50;;;7.62;100.00
13241;BME280;6687;47.790;7.322;2024-03-07T08:14:11;99230.34;;;7.40;100.00
13241;BME280;6687;47.790;7.322;2024-03-07T08:16:38;99231.34;;;7.48;100.00
13241;BME280;6687;47.790;7.322;2024-03-07T08:19:06;99229.97;;;7.65;100.00
13241;BME280;6687;47.790;7.322;2024-03-07T08:21:34;99226.19;;;7.02;100.00
13241;BME280;6687;47.790;7.322;2024-03-07T08:24:03;99231.03;;;7.29;100.00
13241;BME280;6687;47.790;7.322;2024-03-07T08:26:36;99229.41;;;6.92;100.00
13241;BME280;6687;47.790;7.322;2024-03-07T08:29:03;99228.13;;;7.14;100.00
13241;BME280;6687;47.790;7.322;2024-03-07T08:31:30;99225.22;;;7.41;100.00
13241;BME280;6687;47.790;7.322;2024-03-07T08:33:57;99228.53;;;6.91;100.00
13241;BME280;6687;47.790;7.322;2024-03-07T08:36:26;99230.38;;;7.41;100.00
13241;BME280;6687;47.790;7.322;2024-03-07T08:38:52;99224.69;;;7.59;100.00
13241;BME280;6687;47.790;7.322;2024-03-07T08:41:19;99227.34;;;7.62;99.83
13241;BME280;6687;47.790;7.322;2024-03-07T08:43:46;99227.78;;;7.40;99.49
13241;BME280;6687;47.790;7.322;2024-03-07T08:46:14;99229.81;;;7.12;100.00
13241;BME280;6687;47.790;7.322;2024-03-07T08:48:41;99222.50;;;7.33;100.00
13241;BME280;6687;47.790;7.322;2024-03-07T08:51:08;99227.59;;;6.88;100.00
13241;BME280;6687;47.790;7.322;2024-03-07T08:53:36;99230.53;;;7.05;100.00
13241;BME280;6687;47.790;7.322;2024-03-07T08:56:03;99229.94;;;7.18;98.79
13241;BME280;6687;47.790;7.322;2024-03-07T08:58:30;99222.91;;;7.55;97.70
13241;BME280;6687;47.790;7.322;2024-03-07T09:00:56;99229.59;;;7.01;99.85
13241;BME280;6687;47.790;7.322;2024-03-07T09:03:24;99231.03;;;7.29;98.38
13241;BME280;6687;47.790;7.322;2024-03-07T09:05:51;99228.75;;;7.45;98.68
13241;BME280;6687;47.790;7.322;2024-03-07T09:08:17;99221.97;;;7.51;98.95
13241;BME280;6687;47.790;7.322;2024-03-07T09:10:45;99226.59;;;7.22;98.76
13241;BME280;6687;47.790;7.322;2024-03-07T09:13:12;99217.13;;;7.21;98.45
13241;BME280;6687;47.790;7.322;2024-03-07T09:15:39;99221.69;;;7.36;97.26
13241;BME280;6687;47.790;7.322;2024-03-07T09:18:06;99221.34;;;7.17;98.34
13241;BME280;6687;47.790;7.322;2024-03-07T09:20:33;99217.31;;;7.30;98.40
13241;BME280;6687;47.790;7.322;2024-03-07T09:23:00;99212.53;;;7.52;97.87
13241;BME280;6687;47.790;7.322;2024-03-07T09:25:27;99212.19;;;7.33;97.62
13241;BME280;6687;47.790;7.322;2024-03-07T09:27:58;99210.97;;;7.60;97.11
13241;BME280;6687;47.790;7.322;2024-03-07T09:30:25;99209.69;;;7.38;97.24
13241;BME280;6687;47.790;7.322;2024-03-07T09:32:53;99208.41;;;7.62;96.39
13241;BME280;6687;47.790;7.322;2024-03-07T09:35:21;99211.06;;;7.19;95.75
13241;BME280;6687;47.790;7.322;2024-03-07T09:37:48;99210.97;;;7.60;97.70
13241;BME280;6687;47.790;7.322;2024-03-07T09:40:15;99210.47;;;7.32;96.42
13241;BME280;6687;47.790;7.322;2024-03-07T09:42:43;99208.88;;;7.88;95.93
13241;BME280;6687;47.790;7.322;2024-03-07T09:45:14;99207.22;;;7.43;95.24
13241;BME280;6687;47.790;7.322;2024-03-07T09:47:45;99201.13;;;7.39;95.14
13241;BME280;6687;47.790;7.322;2024-03-07T09:50:15;99198.31;;;7.75;95.08
13241;BME280;6687;47.790;7.322;2024-03-07T09:52:45;99204.81;;;7.53;94.46
13241;BME280;6687;47.790;7.322;2024-03-07T09:55:12;99203.47;;;7.74;94.36
13241;BME280;6687;47.790;7.322;2024-03-07T09:57:39;99211.84;;;7.61;93.61
13241;BME280;6687;47.790;7.322;2024-03-07T10:00:08;99207.25;;;7.46;93.24
13241;BME280;6687;47.790;7.322;2024-03-07T10:02:46;99203.78;;;7.92;92.90
13241;BME280;6687;47.790;7.322;2024-03-07T10:05:15;99207.63;;;7.64;91.73
13241;BME280;6687;47.790;7.322;2024-03-07T10:07:42;99199.75;;;8.11;91.24
13241;BME280;6687;47.790;7.322;2024-03-07T10:10:09;99204.72;;;8.52;92.07
13241;BME280;6687;47.790;7.322;2024-03-07T10:12:37;99198.00;;;8.09;90.50
13241;BME280;6687;47.790;7.322;2024-03-07T10:15:05;99195.84;;;8.36;90.73
13241;BME280;6687;47.790;7.322;2024-03-07T10:17:35;99195.59;;;8.20;90.81
13241;BME280;6687;47.790;7.322;2024-03-07T10:20:05;99192.16;;;8.19;90.26
13241;BME280;6687;47.790;7.322;2024-03-07T10:22:35;99186.00;;;8.69;90.18
13241;BME280;6687;47.790;7.322;2024-03-07T10:25:03;99183.47;;;8.75;89.69
13241;BME280;6687;47.790;7.322;2024-03-07T10:27:30;99185.50;;;8.98;88.57
13241;BME280;6687;47.790;7.322;2024-03-07T10:29:57;99190.66;;;8.98;86.83
13241;BME280;6687;47.790;7.322;2024-03-07T10:32:24;99182.34;;;9.23;85.93
13241;BME280;6687;47.790;7.322;2024-03-07T10:34:52;99188.25;;;9.13;84.46
13241;BME280;6687;47.790;7.322;2024-03-07T10:37:21;99186.66;;;9.26;84.71
13241;BME280;6687;47.790;7.322;2024-03-07T10:39:50;99181.97;;;9.76;84.58
13241;BME280;6687;47.790;7.322;2024-03-07T10:42:17;99187.59;;;9.32;83.46
13241;BME280;6687;47.790;7.322;2024-03-07T10:44:46;99187.00;;;9.60;83.05
13241;BME280;6687;47.790;7.322;2024-03-07T10:47:16;99184.28;;;9.46;82.95
13241;BME280;6687;47.790;7.322;2024-03-07T10:49:53;99182.78;;;9.69;83.53
13241;BME280;6687;47.790;7.322;2024-03-07T10:52:28;99185.63;;;10.00;82.84
13241;BME280;6687;47.790;7.322;2024-03-07T10:55:04;99184.06;;;10.21;82.79
13241;BME280;6687;47.790;7.322;2024-03-07T10:57:41;99180.53;;;10.09;81.97
13241;BME280;6687;47.790;7.322;2024-03-07T11:00:14;99182.75;;;9.63;80.13
13241;BME280;6687;47.790;7.322;2024-03-07T11:02:55;99188.50;;;10.37;80.67
13241;BME280;6687;47.790;7.322;2024-03-07T11:05:25;99177.53;;;9.60;80.07
13241;BME280;6687;47.790;7.322;2024-03-07T11:07:57;99175.91;;;9.71;78.79
13241;BME280;6687;47.790;7.322;2024-03-07T11:10:24;99172.72;;;10.03;82.18
13241;BME280;6687;47.790;7.322;2024-03-07T11:12:52;99172.00;;;10.23;78.07
13241;BME280;6687;47.790;7.322;2024-03-07T11:15:20;99171.19;;;10.30;78.47
13241;BME280;6687;47.790;7.322;2024-03-07T11:17:48;99172.22;;;10.55;78.01
13241;BME280;6687;47.790;7.322;2024-03-07T11:20:20;99163.84;;;9.76;76.70
13241;BME280;6687;47.790;7.322;2024-03-07T11:22:47;99164.47;;;10.66;78.08
13241;BME280;6687;47.790;7.322;2024-03-07T11:25:17;99165.22;;;10.42;75.08
13241;BME280;6687;47.790;7.322;2024-03-07T11:27:51;99160.22;;;10.79;75.82
13241;BME280;6687;47.790;7.322;2024-03-07T11:30:19;99159.31;;;10.72;74.13
13241;BME280;6687;47.790;7.322;2024-03-07T11:32:46;99160.09;;;10.54;73.39
13241;BME280;6687;47.790;7.322;2024-03-07T11:35:14;99162.00;;;10.90;73.05
13241;BME280;6687;47.790;7.322;2024-03-07T11:37:42;99154.22;;;10.87;72.51
13241;BME280;6687;47.790;7.322;2024-03-07T11:40:12;99152.50;;;10.86;74.18
13241;BME280;6687;47.790;7.322;2024-03-07T11:42:46;99142.72;;;10.31;72.30
13241;BME280;6687;47.790;7.322;2024-03-07T11:45:14;99134.28;;;10.71;72.25
13241;BME280;6687;47.790;7.322;2024-03-07T11:47:50;99134.31;;;10.83;72.70
13241;BME280;6687;47.790;7.322;2024-03-07T11:50:18;99130.97;;;11.21;76.41
13241;BME280;6687;47.790;7.322;2024-03-07T11:52:45;99134.41;;;11.06;76.86
13241;BME280;6687;47.790;7.322;2024-03-07T11:55:12;99136.09;;;11.01;72.61
13241;BME280;6687;47.790;7.322;2024-03-07T11:57:40;99131.88;;;11.65;75.56
13241;BME280;6687;47.790;7.322;2024-03-07T12:00:12;99132.69;;;11.19;73.36
13241;BME280;6687;47.790;7.322;2024-03-07T12:02:56;99140.47;;;11.13;69.15
13241;BME280;6687;47.790;7.322;2024-03-07T12:05:23;99135.22;;;10.98;67.88
13241;BME280;6687;47.790;7.322;2024-03-07T12:07:52;99124.03;;;11.17;68.89
13241;BME280;6687;47.790;7.322;2024-03-07T12:10:19;99119.78;;;11.93;72.42
13241;BME280;6687;47.790;7.322;2024-03-07T12:12:50;99123.19;;;11.27;67.78
13241;BME280;6687;47.790;7.322;2024-03-07T12:15:18;99115.47;;;11.66;72.09
13241;BME280;6687;47.790;7.322;2024-03-07T12:17:46;99114.59;;;11.74;67.05
13241;BME280;6687;47.790;7.322;2024-03-07T12:20:15;99118.88;;;11.42;67.59
13241;BME280;6687;47.790;7.322;2024-03-07T12:22:56;99112.84;;;11.49;69.02
13241;BME280;6687;47.790;7.322;2024-03-07T12:25:24;99112.88;;;11.52;66.75
13241;BME280;6687;47.790;7.322;2024-03-07T12:28:03;99111.06;;;10.99;67.73
13241;BME280;6687;47.790;7.322;2024-03-07T12:30:36;99102.44;;;11.04;66.28
13241;BME280;6687;47.790;7.322;2024-03-07T12:33:05;99107.66;;;11.58;66.46
13241;BME280;6687;47.790;7.322;2024-03-07T12:35:34;99097.28;;;11.77;66.90
13241;BME280;6687;47.790;7.322;2024-03-07T12:38:01;99088.59;;;12.14;72.40
13241;BME280;6687;47.790;7.322;2024-03-07T12:40:29;99086.88;;;11.32;66.90
13241;BME280;6687;47.790;7.322;2024-03-07T12:42:59;99093.78;;;11.07;66.38
13241;BME280;6687;47.790;7.322;2024-03-07T12:45:28;99091.22;;;11.58;65.69
13241;BME280;6687;47.790;7.322;2024-03-07T12:47:59;99092.06;;;11.46;65.78
13241;BME280;6687;47.790;7.322;2024-03-07T12:50:29;99080.84;;;11.22;65.41
13241;BME280;6687;47.790;7.322;2024-03-07T12:53:00;99084.28;;;12.12;65.25
13241;BME280;6687;47.790;7.322;2024-03-07T12:55:31;99079.88;;;12.34;64.40
13241;BME280;6687;47.790;7.322;2024-03-07T12:57:57;99080.84;;;11.84;64.01
13241;BME280;6687;47.790;7.322;2024-03-07T13:00:24;99074.78;;;11.88;63.25
13241;BME280;6687;47.790;7.322;2024-03-07T13:02:51;99077.38;;;11.86;61.58
13241;BME280;6687;47.790;7.322;2024-03-07T13:05:19;99067.78;;;12.27;62.87
13241;BME280;6687;47.790;7.322;2024-03-07T13:07:48;99066.97;;;11.99;63.05
13241;BME280;6687;47.790;7.322;2024-03-07T13:10:14;99068.41;;;12.81;68.23
13241;BME280;6687;47.790;7.322;2024-03-07T13:12:43;99077.94;;;12.82;69.82
13241;BME280;6687;47.790;7.322;2024-03-07T13:15:11;99068.25;;;13.04;71.90
13241;BME280;6687;47.790;7.322;2024-03-07T13:17:38;99065.78;;;12.84;64.67
13241;BME280;6687;47.790;7.322;2024-03-07T13:20:06;99063.50;;;12.12;61.58
13241;BME280;6687;47.790;7.322;2024-03-07T13:22:40;99064.75;;;13.08;71.45
13241;BME280;6687;47.790;7.322;2024-03-07T13:25:08;99058.88;;;12.83;63.45
13241;BME280;6687;47.790;7.322;2024-03-07T13:27:40;99056.97;;;13.07;68.91
13241;BME280;6687;47.790;7.322;2024-03-07T13:30:11;99054.31;;;13.16;69.38
13241;BME280;6687;47.790;7.322;2024-03-07T13:32:50;99064.22;;;12.54;65.73
13241;BME280;6687;47.790;7.322;2024-03-07T13:35:19;99056.59;;;12.02;63.31
13241;BME280;6687;47.790;7.322;2024-03-07T13:37:48;99045.09;;;12.66;66.25
13241;BME280;6687;47.790;7.322;2024-03-07T13:40:15;99048.63;;;12.43;61.71
13241;BME280;6687;47.790;7.322;2024-03-07T13:42:49;99047.50;;;12.98;64.22
13241;BME280;6687;47.790;7.322;2024-03-07T13:45:18;99053.81;;;12.56;63.23
13241;BME280;6687;47.790;7.322;2024-03-07T13:47:46;99048.63;;;12.45;63.42
13241;BME280;6687;47.790;7.322;2024-03-07T13:50:14;99044.44;;;12.13;62.99
13241;BME280;6687;47.790;7.322;2024-03-07T13:52:40;99037.13;;;12.93;68.25
13241;BME280;6687;47.790;7.322;2024-03-07T13:55:20;99036.16;;;13.07;70.03
13241;BME280;6687;47.790;7.322;2024-03-07T13:57:51;99036.53;;;12.42;63.67
13241;BME280;6687;47.790;7.322;2024-03-07T14:00:32;99027.19;;;11.90;64.75
13241;BME280;6687;47.790;7.322;2024-03-07T14:06:13;99038.38;;;12.22;63.82
13241;BME280;6687;47.790;7.322;2024-03-07T14:09:30;99031.91;;;12.97;66.12
13241;BME280;6687;47.790;7.322;2024-03-07T14:12:22;99033.69;;;12.88;68.80
13241;BME280;6687;47.790;7.322;2024-03-07T14:18:24;99025.47;;;11.55;64.13
13241;BME280;6687;47.790;7.322;2024-03-07T14:21:11;99021.09;;;12.02;64.15
13241;BME280;6687;47.790;7.322;2024-03-07T14:24:20;99021.13;;;11.74;64.41
13241;BME280;6687;47.790;7.322;2024-03-07T14:27:09;99011.66;;;11.66;63.86
13241;BME280;6687;47.790;7.322;2024-03-07T14:29:50;99014.94;;;12.36;67.62
13241;BME280;6687;47.790;7.322;2024-03-07T14:32:22;99014.22;;;11.78;65.48
13241;BME280;6687;47.790;7.322;2024-03-07T14:34:57;99016.59;;;12.44;72.76
13241;BME280;6687;47.790;7.322;2024-03-07T14:37:32;99014.16;;;12.07;67.88
13241;BME280;6687;47.790;7.322;2024-03-07T14:40:08;99021.16;;;11.31;66.58
13241;BME280;6687;47.790;7.322;2024-03-07T14:42:37;99011.66;;;11.40;65.91
13241;BME280;6687;47.790;7.322;2024-03-07T14:45:12;99005.56;;;11.64;67.11
13241;BME280;6687;47.790;7.322;2024-03-07T14:47:39;99008.06;;;12.18;71.60
13241;BME280;6687;47.790;7.322;2024-03-07T14:50:07;99012.53;;;11.45;67.68
13241;BME280;6687;47.790;7.322;2024-03-07T14:52:35;99010.81;;;11.41;67.04
13241;BME280;6687;47.790;7.322;2024-03-07T14:55:06;99002.09;;;11.91;68.34
13241;BME280;6687;47.790;7.322;2024-03-07T14:57:34;98998.56;;;12.10;70.40
13241;BME280;6687;47.790;7.322;2024-03-07T15:00:01;98996.94;;;11.51;68.73
13241;BME280;6687;47.790;7.322;2024-03-07T15:02:29;99002.97;;;11.73;68.10
13241;BME280;6687;47.790;7.322;2024-03-07T15:04:56;98993.50;;;11.58;66.75
13241;BME280;6687;47.790;7.322;2024-03-07T15:07:23;98995.97;;;12.10;67.69
13241;BME280;6687;47.790;7.322;2024-03-07T15:09:50;98991.63;;;12.09;71.16
13241;BME280;6687;47.790;7.322;2024-03-07T15:12:17;98988.28;;;11.46;67.80
13241;BME280;6687;47.790;7.322;2024-03-07T15:14:45;98991.72;;;11.69;71.40
13241;BME280;6687;47.790;7.322;2024-03-07T15:17:12;98987.34;;;12.02;72.47
13241;BME280;6687;47.790;7.322;2024-03-07T15:19:40;98976.25;;;10.92;68.70
13241;BME280;6687;47.790;7.322;2024-03-07T15:22:06;98977.88;;;11.70;68.66
13241;BME280;6687;47.790;7.322;2024-03-07T15:24:33;98977.03;;;11.58;68.21
13241;BME280;6687;47.790;7.322;2024-03-07T15:27:01;98975.28;;;11.69;71.45
13241;BME280;6687;47.790;7.322;2024-03-07T15:29:30;98970.94;;;11.79;70.32
13241;BME280;6687;47.790;7.322;2024-03-07T15:31:57;98972.75;;;11.27;67.73
13241;BME280;6687;47.790;7.322;2024-03-07T15:34:24;98967.56;;;11.27;69.92
13241;BME280;6687;47.790;7.322;2024-03-07T15:37:00;98964.13;;;10.85;69.82
13241;BME280;6687;47.790;7.322;2024-03-07T15:39:28;98964.13;;;11.07;72.40
13241;BME280;6687;47.790;7.322;2024-03-07T15:41:55;98968.44;;;11.26;69.36
13241;BME280;6687;47.790;7.322;2024-03-07T15:44:24;98969.28;;;11.38;72.40
13241;BME280;6687;47.790;7.322;2024-03-07T15:46:51;98961.53;;;11.21;72.13
13241;BME280;6687;47.790;7.322;2024-03-07T15:49:17;98958.91;;;10.70;70.46
13241;BME280;6687;47.790;7.322;2024-03-07T15:51:44;98946.84;;;11.06;75.85
13241;BME280;6687;47.790;7.322;2024-03-07T15:54:13;98946.84;;;10.93;71.57
13241;BME280;6687;47.790;7.322;2024-03-07T15:56:44;98944.25;;;10.93;70.83
13241;BME280;6687;47.790;7.322;2024-03-07T15:59:11;98936.47;;;10.78;70.50
13241;BME280;6687;47.790;7.322;2024-03-07T16:01:38;98940.81;;;10.87;71.74
13241;BME280;6687;47.790;7.322;2024-03-07T16:04:04;98939.94;;;11.05;71.41
13241;BME280;6687;47.790;7.322;2024-03-07T16:06:32;98933.84;;;10.64;69.32
13241;BME280;6687;47.790;7.322;2024-03-07T16:08:59;98943.34;;;10.51;71.16
13241;BME280;6687;47.790;7.322;2024-03-07T16:11:27;98938.19;;;10.65;70.68
13241;BME280;6687;47.790;7.322;2024-03-07T16:13:54;98934.75;;;11.05;72.23
13241;BME280;6687;47.790;7.322;2024-03-07T16:16:21;98935.63;;;10.87;70.48
13241;BME280;6687;47.790;7.322;2024-03-07T16:18:48;98936.47;;;10.55;70.49
13241;BME280;6687;47.790;7.322;2024-03-07T16:21:14;98934.69;;;10.31;74.98
13241;BME280;6687;47.790;7.322;2024-03-07T16:23:41;98931.28;;;10.60;71.58
13241;BME280;6687;47.790;7.322;2024-03-07T16:26:08;98932.97;;;10.50;71.44
13241;BME280;6687;47.790;7.322;2024-03-07T16:28:36;98925.19;;;10.44;72.38
13241;BME280;6687;47.790;7.322;2024-03-07T16:31:03;98927.75;;;10.30;71.78
13241;BME280;6687;47.790;7.322;2024-03-07T16:33:29;98932.97;;;10.42;71.23
13241;BME280;6687;47.790;7.322;2024-03-07T16:35:56;98926.03;;;10.32;71.95
13241;BME280;6687;47.790;7.322;2024-03-07T16:38:24;98932.03;;;10.19;71.97
13241;BME280;6687;47.790;7.322;2024-03-07T16:40:50;98926.00;;;10.23;73.20
13241;BME280;6687;47.790;7.322;2024-03-07T16:43:17;98932.88;;;10.11;72.37
13241;BME280;6687;47.790;7.322;2024-03-07T16:45:45;98919.94;;;10.19;73.17
13241;BME280;6687;47.790;7.322;2024-03-07T16:48:13;98924.13;;;9.82;75.17
13241;BME280;6687;47.790;7.322;2024-03-07T16:50:41;98928.31;;;9.55;74.11
13241;BME280;6687;47.790;7.322;2024-03-07T16:53:08;98927.63;;;9.87;73.85
13241;BME280;6687;47.790;7.322;2024-03-07T16:55:35;98919.00;;;9.91;75.85
13241;BME280;6687;47.790;7.322;2024-03-07T16:58:03;98917.16;;;9.68;73.89
13241;BME280;6687;47.790;7.322;2024-03-07T17:00:30;98923.25;;;9.84;74.27
13241;BME280;6687;47.790;7.322;2024-03-07T17:02:59;98918.13;;;9.89;74.62
13241;BME280;6687;47.790;7.322;2024-03-07T17:05:26;98917.22;;;9.78;74.11
13241;BME280;6687;47.790;7.322;2024-03-07T17:07:53;98911.28;;;10.14;73.28
13241;BME280;6687;47.790;7.322;2024-03-07T17:10:20;98916.38;;;9.82;74.20
13241;BME280;6687;47.790;7.322;2024-03-07T17:12:50;98919.00;;;10.00;74.66
13241;BME280;6687;47.790;7.322;2024-03-07T17:15:18;98911.13;;;9.69;73.24
13241;BME280;6687;47.790;7.322;2024-03-07T17:17:46;98910.38;;;9.89;73.64
13241;BME280;6687;47.790;7.322;2024-03-07T17:20:16;98912.09;;;9.96;74.17
13241;BME280;6687;47.790;7.322;2024-03-07T17:22:44;98912.09;;;9.90;74.25
13241;BME280;6687;47.790;7.322;2024-03-07T17:25:10;98913.75;;;9.79;73.96
13241;BME280;6687;47.790;7.322;2024-03-07T17:27:42;98912.94;;;9.92;72.83
13241;BME280;6687;47.790;7.322;2024-03-07T17:30:13;98917.16;;;9.65;74.35
13241;BME280;6687;47.790;7.322;2024-03-07T17:32:40;98922.31;;;9.59;73.90
13241;BME280;6687;47.790;7.322;2024-03-07T17:35:09;98917.19;;;9.71;73.37
13241;BME280;6687;47.790;7.322;2024-03-07T17:37:37;98919.81;;;9.88;73.81
13241;BME280;6687;47.790;7.322;2024-03-07T17:40:05;98922.38;;;9.81;73.81
13241;BME280;6687;47.790;7.322;2024-03-07T17:42:41;98919.84;;;9.87;73.50
13241;BME280;6687;47.790;7.322;2024-03-07T17:45:09;98925.69;;;9.46;73.56
13241;BME280;6687;47.790;7.322;2024-03-07T17:47:36;98924.06;;;9.69;73.49
13241;BME280;6687;47.790;7.322;2024-03-07T17:50:06;98928.25;;;9.44;73.81
13241;BME280;6687;47.790;7.322;2024-03-07T17:52:33;98923.94;;;9.45;73.76
13241;BME280;6687;47.790;7.322;2024-03-07T17:55:02;98920.56;;;9.55;74.59
13241;BME280;6687;47.790;7.322;2024-03-07T17:57:33;98918.88;;;9.63;73.67
13241;BME280;6687;47.790;7.322;2024-03-07T18:00:00;98918.75;;;9.42;74.15
13241;BME280;6687;47.790;7.322;2024-03-07T18:02:34;98916.41;;;9.94;74.77
13241;BME280;6687;47.790;7.322;2024-03-07T18:05:00;98927.34;;;9.41;75.41
13241;BME280;6687;47.790;7.322;2024-03-07T18:07:34;98935.91;;;9.30;75.46
13241;BME280;6687;47.790;7.322;2024-03-07T18:10:03;98928.44;;;9.84;74.59
13241;BME280;6687;47.790;7.322;2024-03-07T18:12:43;98934.53;;;9.97;75.12
13241;BME280;6687;47.790;7.322;2024-03-07T18:15:09;98928.53;;;10.12;78.00
13241;BME280;6687;47.790;7.322;2024-03-07T18:17:37;98930.31;;;10.19;79.04
13241;BME280;6687;47.790;7.322;2024-03-07T18:20:05;98924.28;;;10.19;79.18
13241;BME280;6687;47.790;7.322;2024-03-07T18:22:35;98924.28;;;10.25;80.14
13241;BME280;6687;47.790;7.322;2024-03-07T18:25:04;98917.31;;;10.05;78.48
13241;BME280;6687;47.790;7.322;2024-03-07T18:27:32;98917.34;;;10.11;77.65
13241;BME280;6687;47.790;7.322;2024-03-07T18:30:00;98913.88;;;10.09;77.18
13241;BME280;6687;47.790;7.322;2024-03-07T18:32:36;98914.72;;;10.14;76.45
13241;BME280;6687;47.790;7.322;2024-03-07T18:35:05;98921.63;;;10.12;76.67
13241;BME280;6687;47.790;7.322;2024-03-07T18:37:32;98921.69;;;10.23;82.88
13241;BME280;6687;47.790;7.322;2024-03-07T18:40:00;98920.78;;;10.07;81.41
13241;BME280;6687;47.790;7.322;2024-03-07T18:42:29;98920.53;;;9.52;78.97
13241;BME280;6687;47.790;7.322;2024-03-07T18:44:57;98903.13;;;9.23;76.85
13241;BME280;6687;47.790;7.322;2024-03-07T18:47:23;98907.34;;;9.10;76.46
13241;BME280;6687;47.790;7.322;2024-03-07T18:49:50;98913.47;;;9.23;75.61
13241;BME280;6687;47.790;7.322;2024-03-07T18:52:18;98898.28;;;9.92;75.35
13241;BME280;6687;47.790;7.322;2024-03-07T18:54:47;98900.56;;;9.31;75.58
13241;BME280;6687;47.790;7.322;2024-03-07T18:57:13;98897.88;;;9.11;75.22
13241;BME280;6687;47.790;7.322;2024-03-07T18:59:42;98897.22;;;9.41;75.07
13241;BME280;6687;47.790;7.322;2024-03-07T19:02:10;98894.66;;;9.46;74.33